sensor_id;sensor_type;location;lat;lon;timestamp;temperature;humidity
12622;DHT22;6376;48.182;-1.644;2022-08-05T00:01:39;21.90;68.00
12622;DHT22;6376;48.182;-1.644;2022-08-05T00:04:04;21.90;68.00
12622;DHT22;6376;48.182;-1.644;2022-08-05T00:06:30;21.90;68.00
12622;DHT22;6376;48.182;-1.644;2022-08-05T00:08:56;21.90;68.00
12622;DHT22;6376;48.182;-1.644;2022-08-05T00:11:21;21.90;68.10
12622;DHT22;6376;48.182;-1.644;2022-08-05T00:13:47;21.90;68.00
12622;DHT22;6376;48.182;-1.644;2022-08-05T00:16:14;21.90;68.00
12622;DHT22;6376;48.182;-1.644;2022-08-05T00:18:45;21.90;67.90
12622;DHT22;6376;48.182;-1.644;2022-08-05T00:21:13;21.90;68.10
12622;DHT22;6376;48.182;-1.644;2022-08-05T00:23:39;21.90;68.20
12622;DHT22;6376;48.182;-1.644;2022-08-05T00:26:06;21.90;68.20
12622;DHT22;6376;48.182;-1.644;2022-08-05T00:28:32;21.90;68.20
12622;DHT22;6376;48.182;-1.644;2022-08-05T00:30:58;21.80;68.10
12622;DHT22;6376;48.182;-1.644;2022-08-05T00:33:24;21.80;68.20
12622;DHT22;6376;48.182;-1.644;2022-08-05T00:35:50;21.80;68.00
12622;DHT22;6376;48.182;-1.644;2022-08-05T00:38:15;21.80;68.00
12622;DHT22;6376;48.182;-1.644;2022-08-05T00:40:47;21.80;68.00
12622;DHT22;6376;48.182;-1.644;2022-08-05T00:43:13;21.80;67.90
12622;DHT22;6376;48.182;-1.644;2022-08-05T00:45:39;21.80;67.80
12622;DHT22;6376;48.182;-1.644;2022-08-05T00:48:06;21.80;67.70
12622;DHT22;6376;48.182;-1.644;2022-08-05T00:50:32;21.80;67.90
12622;DHT22;6376;48.182;-1.644;2022-08-05T00:52:58;21.80;67.80
12622;DHT22;6376;48.182;-1.644;2022-08-05T00:55:24;21.80;67.90
12622;DHT22;6376;48.182;-1.644;2022-08-05T00:57:49;21.80;67.90
12622;DHT22;6376;48.182;-1.644;2022-08-05T01:00:15;21.80;67.90
12622;DHT22;6376;48.182;-1.644;2022-08-05T01:02:41;21.70;67.80
12622;DHT22;6376;48.182;-1.644;2022-08-05T01:05:07;21.70;67.90
12622;DHT22;6376;48.182;-1.644;2022-08-05T01:07:32;21.70;68.10
12622;DHT22;6376;48.182;-1.644;2022-08-05T01:09:58;21.70;68.00
12622;DHT22;6376;48.182;-1.644;2022-08-05T01:12:25;21.70;67.80
12622;DHT22;6376;48.182;-1.644;2022-08-05T01:15:03;21.70;68.00
12622;DHT22;6376;48.182;-1.644;2022-08-05T01:17:46;21.70;68.20
12622;DHT22;6376;48.182;-1.644;2022-08-05T01:20:30;21.70;68.10
12622;DHT22;6376;48.182;-1.644;2022-08-05T01:26:17;21.60;68.20
12622;DHT22;6376;48.182;-1.644;2022-08-05T01:34:12;21.60;68.40
12622;DHT22;6376;48.182;-1.644;2022-08-05T01:36:46;21.60;68.40
12622;DHT22;6376;48.182;-1.644;2022-08-05T01:39:14;21.60;68.40
12622;DHT22;6376;48.182;-1.644;2022-08-05T01:41:42;21.60;69.00
12622;DHT22;6376;48.182;-1.644;2022-08-05T01:44:10;21.60;68.20
12622;DHT22;6376;48.182;-1.644;2022-08-05T01:46:38;21.60;68.30
12622;DHT22;6376;48.182;-1.644;2022-08-05T01:49:05;21.60;68.40
12622;DHT22;6376;48.182;-1.644;2022-08-05T01:51:34;21.60;68.50
12622;DHT22;6376;48.182;-1.644;2022-08-05T01:54:02;21.60;68.30
12622;DHT22;6376;48.182;-1.644;2022-08-05T01:56:32;21.50;68.20
12622;DHT22;6376;48.182;-1.644;2022-08-05T01:59:02;21.50;68.30
12622;DHT22;6376;48.182;-1.644;2022-08-05T02:01:29;21.50;68.60
12622;DHT22;6376;48.182;-1.644;2022-08-05T02:03:57;21.50;68.40
12622;DHT22;6376;48.182;-1.644;2022-08-05T02:06:24;21.50;68.50
12622;DHT22;6376;48.182;-1.644;2022-08-05T02:08:50;21.50;68.30
12622;DHT22;6376;48.182;-1.644;2022-08-05T02:11:16;21.50;68.60
12622;DHT22;6376;48.182;-1.644;2022-08-05T02:21:51;21.50;68.80
12622;DHT22;6376;48.182;-1.644;2022-08-05T02:24:21;21.50;68.70
12622;DHT22;6376;48.182;-1.644;2022-08-05T02:26:55;21.40;68.60
12622;DHT22;6376;48.182;-1.644;2022-08-05T02:29:24;21.40;68.80
12622;DHT22;6376;48.182;-1.644;2022-08-05T02:31:53;21.50;68.80
12622;DHT22;6376;48.182;-1.644;2022-08-05T02:34:19;21.40;68.70
12622;DHT22;6376;48.182;-1.644;2022-08-05T02:36:51;21.40;68.80
12622;DHT22;6376;48.182;-1.644;2022-08-05T02:39:19;21.40;68.60
12622;DHT22;6376;48.182;-1.644;2022-08-05T02:41:46;21.40;68.80
12622;DHT22;6376;48.182;-1.644;2022-08-05T02:44:13;21.40;68.90
12622;DHT22;6376;48.182;-1.644;2022-08-05T02:46:44;21.40;68.80
12622;DHT22;6376;48.182;-1.644;2022-08-05T02:49:14;21.40;68.90
12622;DHT22;6376;48.182;-1.644;2022-08-05T02:51:41;21.30;68.90
12622;DHT22;6376;48.182;-1.644;2022-08-05T02:54:08;21.30;68.80
12622;DHT22;6376;48.182;-1.644;2022-08-05T02:56:35;21.30;68.80
12622;DHT22;6376;48.182;-1.644;2022-08-05T02:59:01;21.30;68.80
12622;DHT22;6376;48.182;-1.644;2022-08-05T03:01:28;21.30;68.90
12622;DHT22;6376;48.182;-1.644;2022-08-05T03:03:58;21.30;68.90
12622;DHT22;6376;48.182;-1.644;2022-08-05T03:06:25;21.30;69.00
12622;DHT22;6376;48.182;-1.644;2022-08-05T03:08:52;21.30;69.10
12622;DHT22;6376;48.182;-1.644;2022-08-05T03:11:20;21.30;69.10
12622;DHT22;6376;48.182;-1.644;2022-08-05T03:13:46;21.30;69.30
12622;DHT22;6376;48.182;-1.644;2022-08-05T03:16:12;21.30;69.10
12622;DHT22;6376;48.182;-1.644;2022-08-05T03:18:38;21.30;69.40
12622;DHT22;6376;48.182;-1.644;2022-08-05T03:21:04;21.30;69.10
12622;DHT22;6376;48.182;-1.644;2022-08-05T03:23:32;21.30;69.30
12622;DHT22;6376;48.182;-1.644;2022-08-05T03:25:58;21.20;69.30
12622;DHT22;6376;48.182;-1.644;2022-08-05T03:28:24;21.20;69.60
12622;DHT22;6376;48.182;-1.644;2022-08-05T03:30:50;21.20;69.60
12622;DHT22;6376;48.182;-1.644;2022-08-05T03:33:16;21.20;69.50
12622;DHT22;6376;48.182;-1.644;2022-08-05T03:35:45;21.20;69.60
12622;DHT22;6376;48.182;-1.644;2022-08-05T03:38:13;21.20;69.50
12622;DHT22;6376;48.182;-1.644;2022-08-05T03:40:40;21.20;69.60
12622;DHT22;6376;48.182;-1.644;2022-08-05T03:43:06;21.20;69.70
12622;DHT22;6376;48.182;-1.644;2022-08-05T03:45:31;21.20;69.70
12622;DHT22;6376;48.182;-1.644;2022-08-05T03:47:57;21.20;69.60
12622;DHT22;6376;48.182;-1.644;2022-08-05T03:50:23;21.20;69.70
12622;DHT22;6376;48.182;-1.644;2022-08-05T03:53:06;21.20;69.60
12622;DHT22;6376;48.182;-1.644;2022-08-05T03:55:36;21.20;69.40
12622;DHT22;6376;48.182;-1.644;2022-08-05T03:58:08;21.10;69.30
12622;DHT22;6376;48.182;-1.644;2022-08-05T04:00:36;21.10;69.30
12622;DHT22;6376;48.182;-1.644;2022-08-05T04:03:04;21.10;69.40
12622;DHT22;6376;48.182;-1.644;2022-08-05T04:05:32;21.10;69.40
12622;DHT22;6376;48.182;-1.644;2022-08-05T04:08:01;21.10;69.60
12622;DHT22;6376;48.182;-1.644;2022-08-05T04:10:28;21.10;69.50
12622;DHT22;6376;48.182;-1.644;2022-08-05T04:12:55;21.20;69.70
12622;DHT22;6376;48.182;-1.644;2022-08-05T04:15:21;21.10;69.60
12622;DHT22;6376;48.182;-1.644;2022-08-05T04:17:47;21.10;69.70
12622;DHT22;6376;48.182;-1.644;2022-08-05T04:20:18;21.10;69.60
12622;DHT22;6376;48.182;-1.644;2022-08-05T04:22:44;21.10;69.70
12622;DHT22;6376;48.182;-1.644;2022-08-05T04:25:09;21.10;69.60
12622;DHT22;6376;48.182;-1.644;2022-08-05T04:27:35;21.00;69.70
12622;DHT22;6376;48.182;-1.644;2022-08-05T04:30:01;21.00;69.50
12622;DHT22;6376;48.182;-1.644;2022-08-05T04:32:26;21.00;69.50
12622;DHT22;6376;48.182;-1.644;2022-08-05T04:34:52;21.00;69.50
12622;DHT22;6376;48.182;-1.644;2022-08-05T04:37:18;21.00;69.60
12622;DHT22;6376;48.182;-1.644;2022-08-05T04:39:43;21.00;69.90
12622;DHT22;6376;48.182;-1.644;2022-08-05T04:42:09;21.00;69.60
12622;DHT22;6376;48.182;-1.644;2022-08-05T04:44:35;21.00;69.50
12622;DHT22;6376;48.182;-1.644;2022-08-05T04:47:01;21.00;69.60
12622;DHT22;6376;48.182;-1.644;2022-08-05T04:49:27;21.00;69.70
12622;DHT22;6376;48.182;-1.644;2022-08-05T04:51:52;21.00;69.70
12622;DHT22;6376;48.182;-1.644;2022-08-05T04:54:18;21.00;69.80
12622;DHT22;6376;48.182;-1.644;2022-08-05T04:56:44;20.90;69.80
12622;DHT22;6376;48.182;-1.644;2022-08-05T04:59:10;20.90;69.90
12622;DHT22;6376;48.182;-1.644;2022-08-05T05:01:36;20.90;69.70
12622;DHT22;6376;48.182;-1.644;2022-08-05T05:04:03;20.90;69.80
12622;DHT22;6376;48.182;-1.644;2022-08-05T05:06:29;20.90;69.90
12622;DHT22;6376;48.182;-1.644;2022-08-05T05:08:55;20.90;69.90
12622;DHT22;6376;48.182;-1.644;2022-08-05T05:11:20;20.90;69.70
12622;DHT22;6376;48.182;-1.644;2022-08-05T05:13:46;20.90;69.80
12622;DHT22;6376;48.182;-1.644;2022-08-05T05:16:12;20.90;69.70
12622;DHT22;6376;48.182;-1.644;2022-08-05T05:18:39;20.90;69.70
12622;DHT22;6376;48.182;-1.644;2022-08-05T05:21:05;20.90;69.80
12622;DHT22;6376;48.182;-1.644;2022-08-05T05:23:31;20.90;70.00
12622;DHT22;6376;48.182;-1.644;2022-08-05T05:25:57;20.90;70.10
12622;DHT22;6376;48.182;-1.644;2022-08-05T05:28:22;20.90;70.00
12622;DHT22;6376;48.182;-1.644;2022-08-05T05:30:48;20.90;70.00
12622;DHT22;6376;48.182;-1.644;2022-08-05T05:33:14;20.90;70.00
12622;DHT22;6376;48.182;-1.644;2022-08-05T05:35:39;20.90;70.00
12622;DHT22;6376;48.182;-1.644;2022-08-05T05:38:05;20.90;70.20
12622;DHT22;6376;48.182;-1.644;2022-08-05T05:40:32;20.80;69.90
12622;DHT22;6376;48.182;-1.644;2022-08-05T05:42:58;20.80;69.90
12622;DHT22;6376;48.182;-1.644;2022-08-05T05:45:24;20.90;70.00
12622;DHT22;6376;48.182;-1.644;2022-08-05T05:47:51;20.80;70.10
12622;DHT22;6376;48.182;-1.644;2022-08-05T05:50:17;20.80;70.00
12622;DHT22;6376;48.182;-1.644;2022-08-05T05:52:45;20.80;70.00
12622;DHT22;6376;48.182;-1.644;2022-08-05T05:55:12;20.80;70.20
12622;DHT22;6376;48.182;-1.644;2022-08-05T05:57:39;20.80;70.20
12622;DHT22;6376;48.182;-1.644;2022-08-05T06:00:07;20.80;70.10
12622;DHT22;6376;48.182;-1.644;2022-08-05T06:02:33;20.90;71.10
12622;DHT22;6376;48.182;-1.644;2022-08-05T06:04:59;20.90;70.30
12622;DHT22;6376;48.182;-1.644;2022-08-05T06:07:25;20.80;70.10
12622;DHT22;6376;48.182;-1.644;2022-08-05T06:09:50;20.90;70.10
12622;DHT22;6376;48.182;-1.644;2022-08-05T06:12:16;20.80;70.20
12622;DHT22;6376;48.182;-1.644;2022-08-05T06:14:42;20.80;70.10
12622;DHT22;6376;48.182;-1.644;2022-08-05T06:17:10;20.80;70.30
12622;DHT22;6376;48.182;-1.644;2022-08-05T06:19:36;20.80;70.30
12622;DHT22;6376;48.182;-1.644;2022-08-05T06:22:05;20.80;70.20
12622;DHT22;6376;48.182;-1.644;2022-08-05T06:24:34;20.80;70.30
12622;DHT22;6376;48.182;-1.644;2022-08-05T06:27:01;20.80;70.30
12622;DHT22;6376;48.182;-1.644;2022-08-05T06:29:26;20.80;70.20
12622;DHT22;6376;48.182;-1.644;2022-08-05T06:31:52;20.80;70.20
12622;DHT22;6376;48.182;-1.644;2022-08-05T06:34:18;20.80;70.20
12622;DHT22;6376;48.182;-1.644;2022-08-05T06:36:44;20.80;70.20
12622;DHT22;6376;48.182;-1.644;2022-08-05T06:39:09;20.80;70.20
12622;DHT22;6376;48.182;-1.644;2022-08-05T06:41:35;20.80;70.30
12622;DHT22;6376;48.182;-1.644;2022-08-05T06:44:01;20.80;70.20
12622;DHT22;6376;48.182;-1.644;2022-08-05T06:46:27;20.80;70.20
12622;DHT22;6376;48.182;-1.644;2022-08-05T06:48:52;20.90;70.20
12622;DHT22;6376;48.182;-1.644;2022-08-05T06:51:18;20.80;70.80
12622;DHT22;6376;48.182;-1.644;2022-08-05T06:53:44;20.80;70.00
12622;DHT22;6376;48.182;-1.644;2022-08-05T06:56:09;20.80;70.00
12622;DHT22;6376;48.182;-1.644;2022-08-05T06:58:35;20.90;70.10
12622;DHT22;6376;48.182;-1.644;2022-08-05T07:01:02;20.90;70.00
12622;DHT22;6376;48.182;-1.644;2022-08-05T07:03:28;20.90;70.10
12622;DHT22;6376;48.182;-1.644;2022-08-05T07:05:54;20.90;70.00
12622;DHT22;6376;48.182;-1.644;2022-08-05T07:08:20;20.90;69.90
12622;DHT22;6376;48.182;-1.644;2022-08-05T07:10:50;20.90;69.90
12622;DHT22;6376;48.182;-1.644;2022-08-05T07:13:16;20.90;69.90
12622;DHT22;6376;48.182;-1.644;2022-08-05T07:16:00;20.90;69.90
12622;DHT22;6376;48.182;-1.644;2022-08-05T07:18:44;20.90;69.80
12622;DHT22;6376;48.182;-1.644;2022-08-05T07:21:10;20.90;69.70
12622;DHT22;6376;48.182;-1.644;2022-08-05T07:23:36;20.90;69.70
12622;DHT22;6376;48.182;-1.644;2022-08-05T07:26:02;20.90;69.70
12622;DHT22;6376;48.182;-1.644;2022-08-05T07:28:28;20.90;69.60
12622;DHT22;6376;48.182;-1.644;2022-08-05T07:30:54;20.90;69.40
12622;DHT22;6376;48.182;-1.644;2022-08-05T07:33:19;20.90;69.60
12622;DHT22;6376;48.182;-1.644;2022-08-05T07:35:46;20.90;69.40
12622;DHT22;6376;48.182;-1.644;2022-08-05T07:38:13;20.90;69.30
12622;DHT22;6376;48.182;-1.644;2022-08-05T07:40:39;20.90;69.30
12622;DHT22;6376;48.182;-1.644;2022-08-05T07:43:04;20.90;69.30
12622;DHT22;6376;48.182;-1.644;2022-08-05T07:45:31;21.00;69.30
12622;DHT22;6376;48.182;-1.644;2022-08-05T07:47:57;21.00;69.30
12622;DHT22;6376;48.182;-1.644;2022-08-05T07:50:23;21.00;69.40
12622;DHT22;6376;48.182;-1.644;2022-08-05T07:52:49;21.00;69.20
12622;DHT22;6376;48.182;-1.644;2022-08-05T07:55:14;21.10;68.90
12622;DHT22;6376;48.182;-1.644;2022-08-05T07:57:40;21.10;68.70
12622;DHT22;6376;48.182;-1.644;2022-08-05T08:00:06;21.10;68.80
12622;DHT22;6376;48.182;-1.644;2022-08-05T08:02:33;21.10;68.40
12622;DHT22;6376;48.182;-1.644;2022-08-05T08:04:59;21.20;68.40
12622;DHT22;6376;48.182;-1.644;2022-08-05T08:07:25;21.20;68.40
12622;DHT22;6376;48.182;-1.644;2022-08-05T08:09:51;21.20;68.10
12622;DHT22;6376;48.182;-1.644;2022-08-05T08:12:17;21.30;67.90
12622;DHT22;6376;48.182;-1.644;2022-08-05T08:14:43;21.40;67.50
12622;DHT22;6376;48.182;-1.644;2022-08-05T08:17:09;21.50;66.90
12622;DHT22;6376;48.182;-1.644;2022-08-05T08:19:36;21.60;66.40
12622;DHT22;6376;48.182;-1.644;2022-08-05T08:22:02;21.70;65.90
12622;DHT22;6376;48.182;-1.644;2022-08-05T08:24:28;21.80;65.50
12622;DHT22;6376;48.182;-1.644;2022-08-05T08:26:55;21.90;65.20
12622;DHT22;6376;48.182;-1.644;2022-08-05T08:29:20;22.00;65.00
12622;DHT22;6376;48.182;-1.644;2022-08-05T08:31:46;22.00;64.50
12622;DHT22;6376;48.182;-1.644;2022-08-05T08:34:12;22.00;64.20
12622;DHT22;6376;48.182;-1.644;2022-08-05T08:36:38;22.00;64.40
12622;DHT22;6376;48.182;-1.644;2022-08-05T08:39:04;22.00;64.20
12622;DHT22;6376;48.182;-1.644;2022-08-05T08:41:32;22.10;64.10
12622;DHT22;6376;48.182;-1.644;2022-08-05T08:43:59;22.10;64.30
12622;DHT22;6376;48.182;-1.644;2022-08-05T08:46:30;22.10;64.00
12622;DHT22;6376;48.182;-1.644;2022-08-05T08:48:56;22.20;63.90
12622;DHT22;6376;48.182;-1.644;2022-08-05T08:51:23;22.30;63.60
12622;DHT22;6376;48.182;-1.644;2022-08-05T08:53:51;22.40;63.30
12622;DHT22;6376;48.182;-1.644;2022-08-05T08:56:18;22.60;62.80
12622;DHT22;6376;48.182;-1.644;2022-08-05T08:58:45;22.70;62.40
12622;DHT22;6376;48.182;-1.644;2022-08-05T09:01:12;22.70;62.10
12622;DHT22;6376;48.182;-1.644;2022-08-05T09:03:39;22.80;62.00
12622;DHT22;6376;48.182;-1.644;2022-08-05T09:06:05;23.00;61.20
12622;DHT22;6376;48.182;-1.644;2022-08-05T09:08:31;22.90;61.40
12622;DHT22;6376;48.182;-1.644;2022-08-05T09:10:57;23.00;61.00
12622;DHT22;6376;48.182;-1.644;2022-08-05T09:13:23;23.00;61.00
12622;DHT22;6376;48.182;-1.644;2022-08-05T09:15:50;23.30;59.80
12622;DHT22;6376;48.182;-1.644;2022-08-05T09:18:16;23.40;59.60
12622;DHT22;6376;48.182;-1.644;2022-08-05T09:20:43;23.50;59.40
12622;DHT22;6376;48.182;-1.644;2022-08-05T09:23:11;23.60;59.10
12622;DHT22;6376;48.182;-1.644;2022-08-05T09:25:43;23.80;58.30
12622;DHT22;6376;48.182;-1.644;2022-08-05T09:28:15;23.90;57.70
12622;DHT22;6376;48.182;-1.644;2022-08-05T09:30:54;24.10;57.20
12622;DHT22;6376;48.182;-1.644;2022-08-05T09:33:22;24.20;56.90
12622;DHT22;6376;48.182;-1.644;2022-08-05T09:35:59;23.50;58.90
12622;DHT22;6376;48.182;-1.644;2022-08-05T09:38:25;23.40;59.30
12622;DHT22;6376;48.182;-1.644;2022-08-05T09:40:51;23.60;58.80
12622;DHT22;6376;48.182;-1.644;2022-08-05T09:43:33;23.50;59.10
12622;DHT22;6376;48.182;-1.644;2022-08-05T09:45:59;23.70;58.90
12622;DHT22;6376;48.182;-1.644;2022-08-05T09:48:28;23.40;59.30
12622;DHT22;6376;48.182;-1.644;2022-08-05T09:51:06;23.30;60.00
12622;DHT22;6376;48.182;-1.644;2022-08-05T09:53:50;23.20;60.40
12622;DHT22;6376;48.182;-1.644;2022-08-05T09:56:26;23.00;60.80
12622;DHT22;6376;48.182;-1.644;2022-08-05T10:01:29;22.90;61.20
12622;DHT22;6376;48.182;-1.644;2022-08-05T10:04:09;22.80;61.30
12622;DHT22;6376;48.182;-1.644;2022-08-05T10:06:42;22.80;61.30
12622;DHT22;6376;48.182;-1.644;2022-08-05T10:09:17;22.90;61.10
12622;DHT22;6376;48.182;-1.644;2022-08-05T10:11:44;22.90;61.10
12622;DHT22;6376;48.182;-1.644;2022-08-05T10:14:30;22.80;60.80
12622;DHT22;6376;48.182;-1.644;2022-08-05T10:17:12;22.90;61.00
12622;DHT22;6376;48.182;-1.644;2022-08-05T10:19:39;22.80;61.10
12622;DHT22;6376;48.182;-1.644;2022-08-05T10:22:06;22.80;61.10
12622;DHT22;6376;48.182;-1.644;2022-08-05T10:24:32;22.80;61.10
12622;DHT22;6376;48.182;-1.644;2022-08-05T10:26:58;22.80;61.10
12622;DHT22;6376;48.182;-1.644;2022-08-05T10:29:24;22.80;60.90
12622;DHT22;6376;48.182;-1.644;2022-08-05T10:31:51;22.90;60.90
12622;DHT22;6376;48.182;-1.644;2022-08-05T10:34:18;22.90;60.90
12622;DHT22;6376;48.182;-1.644;2022-08-05T10:36:44;22.90;60.80
12622;DHT22;6376;48.182;-1.644;2022-08-05T10:39:19;23.00;60.70
12622;DHT22;6376;48.182;-1.644;2022-08-05T10:42:11;22.90;60.80
12622;DHT22;6376;48.182;-1.644;2022-08-05T10:44:38;22.80;61.20
12622;DHT22;6376;48.182;-1.644;2022-08-05T10:47:10;22.90;61.10
12622;DHT22;6376;48.182;-1.644;2022-08-05T10:50:06;23.00;60.70
12622;DHT22;6376;48.182;-1.644;2022-08-05T10:52:42;23.00;60.70
12622;DHT22;6376;48.182;-1.644;2022-08-05T10:55:10;23.00;60.60
12622;DHT22;6376;48.182;-1.644;2022-08-05T10:57:38;23.00;60.50
12622;DHT22;6376;48.182;-1.644;2022-08-05T11:00:17;23.10;59.90
12622;DHT22;6376;48.182;-1.644;2022-08-05T11:05:34;23.20;60.00
12622;DHT22;6376;48.182;-1.644;2022-08-05T11:08:03;23.10;60.10
12622;DHT22;6376;48.182;-1.644;2022-08-05T11:10:30;23.10;60.00
12622;DHT22;6376;48.182;-1.644;2022-08-05T11:12:57;23.10;60.40
12622;DHT22;6376;48.182;-1.644;2022-08-05T11:15:30;23.10;60.30
12622;DHT22;6376;48.182;-1.644;2022-08-05T11:18:22;23.20;60.30
12622;DHT22;6376;48.182;-1.644;2022-08-05T11:20:50;23.20;59.60
12622;DHT22;6376;48.182;-1.644;2022-08-05T11:23:32;23.10;60.20
12622;DHT22;6376;48.182;-1.644;2022-08-05T11:28:42;23.20;59.80
12622;DHT22;6376;48.182;-1.644;2022-08-05T11:36:17;23.20;59.50
12622;DHT22;6376;48.182;-1.644;2022-08-05T11:43:56;23.10;59.90
12622;DHT22;6376;48.182;-1.644;2022-08-05T11:48:56;23.20;59.50
12622;DHT22;6376;48.182;-1.644;2022-08-05T11:51:23;23.30;59.50
12622;DHT22;6376;48.182;-1.644;2022-08-05T11:53:49;23.30;59.50
12622;DHT22;6376;48.182;-1.644;2022-08-05T11:56:15;23.30;59.30
12622;DHT22;6376;48.182;-1.644;2022-08-05T11:58:42;23.30;59.30
12622;DHT22;6376;48.182;-1.644;2022-08-05T12:01:12;23.40;59.40
12622;DHT22;6376;48.182;-1.644;2022-08-05T12:06:10;23.30;59.20
12622;DHT22;6376;48.182;-1.644;2022-08-05T12:08:43;23.30;59.50
12622;DHT22;6376;48.182;-1.644;2022-08-05T12:11:10;23.30;59.20
12622;DHT22;6376;48.182;-1.644;2022-08-05T12:13:37;23.40;59.10
12622;DHT22;6376;48.182;-1.644;2022-08-05T12:16:09;23.40;59.00
12622;DHT22;6376;48.182;-1.644;2022-08-05T12:18:42;23.40;59.00
12622;DHT22;6376;48.182;-1.644;2022-08-05T12:21:13;23.40;58.90
12622;DHT22;6376;48.182;-1.644;2022-08-05T12:23:39;23.40;59.10
12622;DHT22;6376;48.182;-1.644;2022-08-05T12:26:15;23.50;58.90
12622;DHT22;6376;48.182;-1.644;2022-08-05T12:28:41;23.40;58.60
12622;DHT22;6376;48.182;-1.644;2022-08-05T12:31:07;23.50;59.00
12622;DHT22;6376;48.182;-1.644;2022-08-05T12:33:33;23.50;58.80
12622;DHT22;6376;48.182;-1.644;2022-08-05T12:36:00;23.50;59.00
12622;DHT22;6376;48.182;-1.644;2022-08-05T12:38:27;23.50;58.90
12622;DHT22;6376;48.182;-1.644;2022-08-05T12:40:54;23.50;58.80
12622;DHT22;6376;48.182;-1.644;2022-08-05T12:43:20;23.50;58.90
12622;DHT22;6376;48.182;-1.644;2022-08-05T12:45:54;23.50;58.80
12622;DHT22;6376;48.182;-1.644;2022-08-05T12:48:21;23.60;58.90
12622;DHT22;6376;48.182;-1.644;2022-08-05T12:51:09;23.50;58.80
12622;DHT22;6376;48.182;-1.644;2022-08-05T12:53:43;23.50;58.90
12622;DHT22;6376;48.182;-1.644;2022-08-05T12:56:39;23.50;58.50
12622;DHT22;6376;48.182;-1.644;2022-08-05T12:59:16;23.50;58.90
12622;DHT22;6376;48.182;-1.644;2022-08-05T13:01:44;23.60;58.60
12622;DHT22;6376;48.182;-1.644;2022-08-05T13:04:11;23.60;58.40
12622;DHT22;6376;48.182;-1.644;2022-08-05T13:06:41;23.60;58.40
12622;DHT22;6376;48.182;-1.644;2022-08-05T13:09:10;23.60;58.60
12622;DHT22;6376;48.182;-1.644;2022-08-05T13:11:40;23.60;58.40
12622;DHT22;6376;48.182;-1.644;2022-08-05T13:14:26;23.60;58.60
12622;DHT22;6376;48.182;-1.644;2022-08-05T13:16:56;23.50;58.50
12622;DHT22;6376;48.182;-1.644;2022-08-05T13:19:27;23.60;58.40
12622;DHT22;6376;48.182;-1.644;2022-08-05T13:21:53;23.50;58.20
12622;DHT22;6376;48.182;-1.644;2022-08-05T13:24:21;23.60;58.60
12622;DHT22;6376;48.182;-1.644;2022-08-05T13:26:48;23.60;58.60
12622;DHT22;6376;48.182;-1.644;2022-08-05T13:29:14;23.50;58.60
12622;DHT22;6376;48.182;-1.644;2022-08-05T13:31:41;23.50;58.50
12622;DHT22;6376;48.182;-1.644;2022-08-05T13:34:07;23.50;58.70
12622;DHT22;6376;48.182;-1.644;2022-08-05T13:36:33;23.50;58.50
12622;DHT22;6376;48.182;-1.644;2022-08-05T13:39:00;23.50;58.60
12622;DHT22;6376;48.182;-1.644;2022-08-05T13:41:26;23.50;58.60
12622;DHT22;6376;48.182;-1.644;2022-08-05T13:43:52;23.50;58.60
12622;DHT22;6376;48.182;-1.644;2022-08-05T13:46:18;23.50;58.60
12622;DHT22;6376;48.182;-1.644;2022-08-05T13:48:44;23.50;58.20
12622;DHT22;6376;48.182;-1.644;2022-08-05T13:51:11;23.50;58.50
12622;DHT22;6376;48.182;-1.644;2022-08-05T13:53:43;23.50;58.70
12622;DHT22;6376;48.182;-1.644;2022-08-05T13:56:08;23.40;58.50
12622;DHT22;6376;48.182;-1.644;2022-08-05T13:58:34;23.50;58.50
12622;DHT22;6376;48.182;-1.644;2022-08-05T14:01:00;23.50;58.70
12622;DHT22;6376;48.182;-1.644;2022-08-05T14:03:26;23.40;58.60
12622;DHT22;6376;48.182;-1.644;2022-08-05T14:05:53;23.40;58.30
12622;DHT22;6376;48.182;-1.644;2022-08-05T14:08:20;23.50;58.40
12622;DHT22;6376;48.182;-1.644;2022-08-05T14:10:46;23.50;58.60
12622;DHT22;6376;48.182;-1.644;2022-08-05T14:13:11;23.40;58.80
12622;DHT22;6376;48.182;-1.644;2022-08-05T14:15:37;23.40;58.40
12622;DHT22;6376;48.182;-1.644;2022-08-05T14:18:03;23.50;58.50
12622;DHT22;6376;48.182;-1.644;2022-08-05T14:20:30;23.40;58.70
12622;DHT22;6376;48.182;-1.644;2022-08-05T14:22:57;23.40;58.60
12622;DHT22;6376;48.182;-1.644;2022-08-05T14:25:22;23.40;58.80
12622;DHT22;6376;48.182;-1.644;2022-08-05T14:27:49;23.40;58.40
12622;DHT22;6376;48.182;-1.644;2022-08-05T14:30:16;23.40;58.60
12622;DHT22;6376;48.182;-1.644;2022-08-05T14:32:42;23.40;58.60
12622;DHT22;6376;48.182;-1.644;2022-08-05T14:35:09;23.40;58.70
12622;DHT22;6376;48.182;-1.644;2022-08-05T14:37:34;23.40;58.60
12622;DHT22;6376;48.182;-1.644;2022-08-05T14:40:01;23.40;59.20
12622;DHT22;6376;48.182;-1.644;2022-08-05T14:42:26;23.40;58.50
12622;DHT22;6376;48.182;-1.644;2022-08-05T14:44:52;23.40;58.60
12622;DHT22;6376;48.182;-1.644;2022-08-05T14:47:18;23.40;58.40
12622;DHT22;6376;48.182;-1.644;2022-08-05T14:49:44;23.50;58.30
12622;DHT22;6376;48.182;-1.644;2022-08-05T14:52:10;23.50;58.20
12622;DHT22;6376;48.182;-1.644;2022-08-05T14:54:36;23.50;57.90
12622;DHT22;6376;48.182;-1.644;2022-08-05T14:57:02;23.50;58.20
12622;DHT22;6376;48.182;-1.644;2022-08-05T14:59:28;23.50;58.00
12622;DHT22;6376;48.182;-1.644;2022-08-05T15:01:53;23.40;58.20
12622;DHT22;6376;48.182;-1.644;2022-08-05T15:04:20;23.40;58.40
12622;DHT22;6376;48.182;-1.644;2022-08-05T15:06:46;23.40;58.10
12622;DHT22;6376;48.182;-1.644;2022-08-05T15:09:11;23.40;57.90
12622;DHT22;6376;48.182;-1.644;2022-08-05T15:11:37;23.40;57.80
12622;DHT22;6376;48.182;-1.644;2022-08-05T15:14:03;23.40;58.10
12622;DHT22;6376;48.182;-1.644;2022-08-05T15:16:29;23.40;58.10
12622;DHT22;6376;48.182;-1.644;2022-08-05T15:18:55;23.40;57.90
12622;DHT22;6376;48.182;-1.644;2022-08-05T15:21:21;23.40;57.90
12622;DHT22;6376;48.182;-1.644;2022-08-05T15:23:47;23.40;57.80
12622;DHT22;6376;48.182;-1.644;2022-08-05T15:26:13;23.40;57.80
12622;DHT22;6376;48.182;-1.644;2022-08-05T15:28:44;23.40;58.10
12622;DHT22;6376;48.182;-1.644;2022-08-05T15:31:10;23.40;58.20
12622;DHT22;6376;48.182;-1.644;2022-08-05T15:33:36;23.40;57.80
12622;DHT22;6376;48.182;-1.644;2022-08-05T15:36:05;23.40;58.00
12622;DHT22;6376;48.182;-1.644;2022-08-05T15:38:34;23.40;58.10
12622;DHT22;6376;48.182;-1.644;2022-08-05T15:41:00;23.40;57.90
12622;DHT22;6376;48.182;-1.644;2022-08-05T15:43:25;23.40;58.10
12622;DHT22;6376;48.182;-1.644;2022-08-05T15:45:51;23.40;57.80
12622;DHT22;6376;48.182;-1.644;2022-08-05T15:48:17;23.40;57.80
12622;DHT22;6376;48.182;-1.644;2022-08-05T15:50:45;23.40;57.70
12622;DHT22;6376;48.182;-1.644;2022-08-05T15:53:12;23.40;57.50
12622;DHT22;6376;48.182;-1.644;2022-08-05T15:55:41;23.40;57.40
12622;DHT22;6376;48.182;-1.644;2022-08-05T15:58:08;23.40;57.50
12622;DHT22;6376;48.182;-1.644;2022-08-05T16:00:34;23.40;57.30
12622;DHT22;6376;48.182;-1.644;2022-08-05T16:03:00;23.40;57.30
12622;DHT22;6376;48.182;-1.644;2022-08-05T16:05:25;23.40;57.00
12622;DHT22;6376;48.182;-1.644;2022-08-05T16:07:51;23.40;57.40
12622;DHT22;6376;48.182;-1.644;2022-08-05T16:10:17;23.40;57.30
12622;DHT22;6376;48.182;-1.644;2022-08-05T16:12:44;23.30;57.80
12622;DHT22;6376;48.182;-1.644;2022-08-05T16:15:10;23.30;57.30